createdAt,value
2018-02-17T00:00:44.564Z,1.85
2018-02-17T00:01:44.434Z,1.94
2018-02-17T00:02:44.301Z,1.85
2018-02-17T00:03:44.173Z,1.87
2018-02-17T00:04:44.045Z,1.89
2018-02-17T00:05:43.913Z,1.85
2018-02-17T00:06:43.784Z,1.80
2018-02-17T00:07:43.658Z,1.78
2018-02-17T00:08:43.529Z,1.83
2018-02-17T00:09:43.397Z,1.80
2018-02-17T00:10:43.271Z,1.82
2018-02-17T00:11:43.141Z,1.80
2018-02-17T00:12:43.011Z,1.83
2018-02-17T00:13:42.883Z,1.85
2018-02-17T00:14:42.753Z,1.82
2018-02-17T00:15:42.623Z,1.89
2018-02-17T00:16:42.494Z,1.85
2018-02-17T00:17:42.364Z,1.80
2018-02-17T00:18:42.241Z,1.83
2018-02-17T00:19:42.111Z,1.83
2018-02-17T00:20:41.978Z,1.89
2018-02-17T00:21:41.846Z,1.73
2018-02-17T00:22:41.718Z,1.75
2018-02-17T00:23:41.588Z,1.75
2018-02-17T00:24:41.457Z,1.76
2018-02-17T00:25:41.328Z,1.79
2018-02-17T00:26:41.200Z,1.80
2018-02-17T00:27:41.070Z,1.72
2018-02-17T00:28:40.941Z,1.72
2018-02-17T00:29:40.811Z,1.73
2018-02-17T00:30:40.681Z,1.78
2018-02-17T00:31:40.553Z,1.78
2018-02-17T00:32:40.425Z,1.72
2018-02-17T00:33:40.293Z,1.85
2018-02-17T00:34:40.166Z,1.79
2018-02-17T00:35:40.032Z,1.82
2018-02-17T00:36:39.906Z,1.79
2018-02-17T00:37:39.779Z,1.78
2018-02-17T00:38:39.646Z,1.75
2018-02-17T00:39:39.518Z,1.75
2018-02-17T00:40:39.391Z,1.75
2018-02-17T00:41:39.258Z,1.75
2018-02-17T00:42:39.136Z,1.78
2018-02-17T00:43:39.002Z,1.72
2018-02-17T00:44:38.869Z,1.58
2018-02-17T00:45:38.739Z,1.68
2018-02-17T00:46:38.612Z,1.64
2018-02-17T00:47:38.482Z,1.60
2018-02-17T00:48:38.352Z,1.58
2018-02-17T00:49:38.227Z,1.58
2018-02-17T00:50:38.092Z,1.52
2018-02-17T00:51:37.965Z,1.44
2018-02-17T00:52:37.839Z,1.50
2018-02-17T00:53:37.703Z,1.50
2018-02-17T00:54:37.574Z,1.42
2018-02-17T00:55:37.444Z,1.39
2018-02-17T00:56:37.316Z,1.43
2018-02-17T00:57:37.185Z,1.42
2018-02-17T00:58:37.056Z,1.40
2018-02-17T00:59:36.931Z,1.37
2018-02-17T01:00:36.798Z,1.40
2018-02-17T01:01:36.667Z,1.43
2018-02-17T01:02:36.534Z,1.37
2018-02-17T01:03:36.404Z,1.40
2018-02-17T01:04:36.275Z,1.36
2018-02-17T01:05:36.145Z,1.39
2018-02-17T01:06:36.014Z,1.42
2018-02-17T01:07:35.882Z,1.39
2018-02-17T01:08:35.753Z,1.37
2018-02-17T01:09:35.624Z,1.37
2018-02-17T01:10:35.493Z,1.26
2018-02-17T01:11:35.363Z,1.26
2018-02-17T01:12:35.234Z,1.21
2018-02-17T01:13:35.101Z,1.26
2018-02-17T01:14:34.972Z,1.33
2018-02-17T01:15:34.840Z,1.25
2018-02-17T01:16:34.717Z,1.19
2018-02-17T01:17:34.581Z,1.19
2018-02-17T01:18:34.451Z,1.22
2018-02-17T01:19:34.323Z,1.21
2018-02-17T01:20:34.192Z,1.29
2018-02-17T01:21:34.061Z,1.26
2018-02-17T01:22:33.933Z,1.21
2018-02-17T01:23:33.800Z,1.21
2018-02-17T01:24:33.667Z,1.25
2018-02-17T01:25:33.537Z,1.26
2018-02-17T01:26:33.409Z,1.29
2018-02-17T01:27:33.279Z,1.14
2018-02-17T01:28:33.149Z,1.24
2018-02-17T01:29:33.015Z,1.19
2018-02-17T01:30:32.888Z,1.25
2018-02-17T01:31:32.756Z,1.29
2018-02-17T01:32:32.626Z,1.29
2018-02-17T01:33:32.497Z,1.26
2018-02-17T01:34:32.366Z,1.21
2018-02-17T01:35:32.234Z,1.16
2018-02-17T01:36:32.108Z,1.10
2018-02-17T01:37:31.971Z,1.14
2018-02-17T01:38:31.840Z,1.15
2018-02-17T01:39:31.710Z,1.18
2018-02-17T01:40:31.579Z,1.10
2018-02-17T01:41:31.447Z,1.10
2018-02-17T01:42:31.318Z,1.15
2018-02-17T01:43:31.186Z,1.15
2018-02-17T01:44:31.058Z,1.12
2018-02-17T01:45:30.927Z,1.15
2018-02-17T01:46:30.794Z,1.10
2018-02-17T01:47:30.665Z,1.08
2018-02-17T01:48:30.534Z,1.08
2018-02-17T01:49:30.401Z,1.14
2018-02-17T01:50:30.273Z,1.04
2018-02-17T01:51:30.143Z,1.07
2018-02-17T01:52:30.009Z,1.06
2018-02-17T01:53:29.881Z,1.10
2018-02-17T01:54:29.751Z,1.06
2018-02-17T01:55:29.616Z,1.03
2018-02-17T01:56:29.486Z,1.10
2018-02-17T01:57:29.354Z,1.03
2018-02-17T01:58:29.225Z,1.07
2018-02-17T01:59:29.095Z,1.06
2018-02-17T02:00:28.963Z,1.06
2018-02-17T02:01:28.835Z,1.10
2018-02-17T02:02:28.705Z,1.18
2018-02-17T02:03:28.571Z,1.14
2018-02-17T02:04:28.439Z,1.22
2018-02-17T02:05:28.308Z,1.06
2018-02-17T02:06:28.177Z,1.06
2018-02-17T02:07:28.044Z,1.18
2018-02-17T02:08:27.913Z,1.03
2018-02-17T02:09:27.783Z,1.12
2018-02-17T02:10:27.652Z,1.12
2018-02-17T02:11:27.529Z,1.04
2018-02-17T02:12:27.392Z,1.10
2018-02-17T02:13:27.258Z,1.12
2018-02-17T02:14:27.130Z,1.06
2018-02-17T02:15:26.998Z,1.10
2018-02-17T02:16:26.867Z,1.07
2018-02-17T02:17:26.734Z,1.06
2018-02-17T02:18:26.604Z,1.10
2018-02-17T02:19:26.472Z,1.12
2018-02-17T02:20:26.342Z,1.14
2018-02-17T02:21:26.212Z,1.08
2018-02-17T02:22:26.081Z,1.12
2018-02-17T02:23:25.950Z,1.08
2018-02-17T02:24:25.819Z,1.04
2018-02-17T02:25:25.692Z,1.04
2018-02-17T02:26:25.556Z,1.04
2018-02-17T02:27:25.428Z,0.96
2018-02-17T02:28:25.292Z,1.00
2018-02-17T02:29:25.163Z,0.98
2018-02-17T02:30:25.034Z,0.97
2018-02-17T02:31:24.902Z,0.97
2018-02-17T02:32:24.773Z,1.00
2018-02-17T02:33:24.640Z,0.97
2018-02-17T02:34:24.509Z,1.04
2018-02-17T02:35:24.377Z,1.07
2018-02-17T02:36:24.248Z,1.12
2018-02-17T02:37:24.114Z,1.21
2018-02-17T02:38:23.985Z,1.16
2018-02-17T02:39:23.857Z,1.14
2018-02-17T02:40:23.723Z,1.16
2018-02-17T02:41:23.591Z,1.10
2018-02-17T02:42:23.464Z,1.06
2018-02-17T02:43:23.328Z,1.04
2018-02-17T02:44:23.200Z,1.00
2018-02-17T02:45:23.067Z,1.00
2018-02-17T02:46:22.934Z,0.97
2018-02-17T02:47:22.805Z,0.96
2018-02-17T02:48:22.674Z,0.86
2018-02-17T02:49:22.548Z,0.96
2018-02-17T02:50:22.410Z,0.89
2018-02-17T02:51:22.281Z,0.96
2018-02-17T02:52:22.147Z,0.90
2018-02-17T02:53:22.017Z,0.96
2018-02-17T02:54:21.886Z,0.97
2018-02-17T02:55:21.754Z,1.03
2018-02-17T02:56:21.623Z,1.00
2018-02-17T02:57:21.494Z,1.04
2018-02-17T02:58:21.365Z,1.07
2018-02-17T02:59:21.230Z,1.03
2018-02-17T03:00:21.097Z,1.00
2018-02-17T03:01:20.967Z,0.92
2018-02-17T03:02:20.839Z,0.90
2018-02-17T03:03:20.707Z,0.94
2018-02-17T03:04:20.578Z,0.83
2018-02-17T03:05:20.444Z,0.80
2018-02-17T03:06:20.315Z,0.89
2018-02-17T03:07:20.182Z,0.85
2018-02-17T03:08:20.051Z,0.86
2018-02-17T03:09:19.918Z,0.71
2018-02-17T03:10:19.787Z,0.71
2018-02-17T03:11:19.658Z,0.72
2018-02-17T03:12:19.525Z,0.78
2018-02-17T03:13:19.398Z,0.72
2018-02-17T03:14:19.264Z,0.76
2018-02-17T03:15:19.151Z,0.80
2018-02-17T03:16:19.006Z,0.89
2018-02-17T03:17:18.870Z,0.92
2018-02-17T03:18:18.739Z,0.98
2018-02-17T03:19:18.612Z,0.98
2018-02-17T03:20:18.481Z,1.10
2018-02-17T03:21:18.351Z,1.03
2018-02-17T03:22:18.214Z,1.14
2018-02-17T03:23:18.085Z,1.16
2018-02-17T03:24:17.954Z,1.18
2018-02-17T03:25:17.822Z,1.22
2018-02-17T03:26:17.690Z,1.22
2018-02-17T03:27:17.562Z,1.22
2018-02-17T03:28:17.428Z,1.21
2018-02-17T03:29:17.303Z,1.33
2018-02-17T03:30:17.171Z,1.29
2018-02-17T03:31:17.039Z,1.37
2018-02-17T03:32:16.909Z,1.32
2018-02-17T03:33:16.776Z,1.37
2018-02-17T03:34:16.642Z,1.40
2018-02-17T03:35:16.514Z,1.42
2018-02-17T03:36:16.385Z,1.43
2018-02-17T03:37:16.249Z,1.40
2018-02-17T03:38:16.120Z,1.40
2018-02-17T03:39:15.988Z,1.40
2018-02-17T03:40:15.861Z,1.34
2018-02-17T03:41:15.727Z,1.28
2018-02-17T03:42:15.597Z,1.36
2018-02-17T03:43:15.475Z,1.36
2018-02-17T03:44:15.335Z,1.29
2018-02-17T03:45:15.202Z,1.25
2018-02-17T03:46:15.074Z,1.33
2018-02-17T03:47:14.939Z,1.33
2018-02-17T03:48:14.808Z,1.21
2018-02-17T03:49:14.677Z,1.28
2018-02-17T03:50:14.547Z,1.25
2018-02-17T03:51:14.413Z,1.25
2018-02-17T03:52:14.284Z,1.36
2018-02-17T03:53:14.153Z,1.26
2018-02-17T03:54:14.029Z,1.28
2018-02-17T03:55:13.889Z,1.26
2018-02-17T03:56:13.764Z,1.33
2018-02-17T03:57:13.628Z,1.34
2018-02-17T03:58:13.497Z,1.19
2018-02-17T03:59:13.367Z,1.25
2018-02-17T04:00:13.235Z,1.25
2018-02-17T04:01:13.103Z,1.18
2018-02-17T04:02:12.973Z,1.01
2018-02-17T04:03:12.842Z,1.01
2018-02-17T04:04:12.716Z,1.07
2018-02-17T04:05:12.578Z,1.10
2018-02-17T04:06:12.451Z,0.98
2018-02-17T04:07:12.316Z,1.00
2018-02-17T04:08:12.188Z,1.06
2018-02-17T04:09:12.059Z,1.03
2018-02-17T04:10:11.923Z,1.07
2018-02-17T04:11:11.792Z,1.21
2018-02-17T04:12:11.664Z,1.25
2018-02-17T04:13:11.530Z,1.28
2018-02-17T04:14:11.400Z,1.24
2018-02-17T04:15:11.267Z,1.22
2018-02-17T04:16:11.135Z,1.34
2018-02-17T04:17:11.007Z,1.32
2018-02-17T04:18:10.872Z,1.36
2018-02-17T04:19:10.743Z,1.43
2018-02-17T04:20:10.618Z,1.37
2018-02-17T04:21:10.481Z,1.40
2018-02-17T04:22:10.350Z,1.34
2018-02-17T04:23:10.217Z,1.36
2018-02-17T04:24:10.090Z,1.26
2018-02-17T04:25:09.956Z,1.29
2018-02-17T04:26:09.826Z,1.29
2018-02-17T04:27:09.694Z,1.34
2018-02-17T04:28:09.566Z,1.32
2018-02-17T04:29:09.433Z,1.29
2018-02-17T04:30:09.300Z,1.19
2018-02-17T04:31:09.172Z,1.28
2018-02-17T04:32:09.045Z,1.22
2018-02-17T04:33:08.909Z,1.14
2018-02-17T04:34:08.779Z,1.06
2018-02-17T04:35:08.646Z,1.15
2018-02-17T04:36:08.516Z,1.07
2018-02-17T04:37:08.384Z,1.15
2018-02-17T04:38:08.256Z,1.12
2018-02-17T04:39:08.124Z,1.16
2018-02-17T04:40:07.993Z,1.18
2018-02-17T04:41:07.867Z,1.14
2018-02-17T04:42:07.737Z,1.26
2018-02-17T04:43:07.600Z,1.24
2018-02-17T04:44:07.470Z,1.36
2018-02-17T04:45:07.342Z,1.37
2018-02-17T04:46:07.208Z,1.47
2018-02-17T04:47:07.079Z,1.44
2018-02-17T04:48:06.952Z,1.46
2018-02-17T04:49:06.817Z,1.43
2018-02-17T04:50:06.687Z,1.37
2018-02-17T04:51:06.556Z,1.40
2018-02-17T04:52:06.424Z,1.42
2018-02-17T04:53:06.294Z,1.39
2018-02-17T04:54:06.161Z,1.37
2018-02-17T04:55:06.030Z,1.39
2018-02-17T04:56:05.900Z,1.39
2018-02-17T04:57:05.769Z,1.40
2018-02-17T04:58:05.639Z,1.34
2018-02-17T04:59:05.506Z,1.37
2018-02-17T05:00:05.376Z,1.18
2018-02-17T05:01:05.244Z,1.29
2018-02-17T05:02:05.116Z,1.19
2018-02-17T05:03:04.985Z,1.15
2018-02-17T05:04:04.854Z,1.04
2018-02-17T05:05:04.721Z,1.01
2018-02-17T05:06:04.591Z,1.04
2018-02-17T05:07:04.462Z,1.10
2018-02-17T05:08:04.329Z,1.16
2018-02-17T05:09:04.200Z,1.18
2018-02-17T05:10:04.068Z,1.14
2018-02-17T05:11:03.938Z,1.16
2018-02-17T05:12:03.809Z,1.26
2018-02-17T05:13:03.676Z,1.21
2018-02-17T05:14:03.545Z,1.29
2018-02-17T05:15:03.412Z,1.32
2018-02-17T05:16:03.284Z,1.26
2018-02-17T05:17:03.189Z,1.28
2018-02-17T05:18:03.019Z,1.28
2018-02-17T05:19:02.892Z,1.28
2018-02-17T05:20:02.761Z,1.40
2018-02-17T05:21:02.638Z,1.39
2018-02-17T05:22:02.499Z,1.39
2018-02-17T05:23:02.373Z,1.36
2018-02-17T05:24:02.234Z,1.40
2018-02-17T05:25:02.109Z,1.40
2018-02-17T05:26:01.973Z,1.28
2018-02-17T05:27:01.841Z,1.37
2018-02-17T05:28:01.710Z,1.25
2018-02-17T05:29:01.579Z,1.22
2018-02-17T05:30:01.447Z,1.22
2018-02-17T05:31:01.317Z,1.25
2018-02-17T05:32:01.185Z,1.22
2018-02-17T05:33:01.056Z,1.19
2018-02-17T05:34:00.924Z,1.18
2018-02-17T05:35:00.794Z,1.16
2018-02-17T05:36:00.662Z,1.19
2018-02-17T05:37:00.534Z,1.29
2018-02-17T05:38:00.399Z,1.36
2018-02-17T05:39:00.268Z,1.26
2018-02-17T05:40:00.137Z,1.39
2018-02-17T05:41:00.025Z,1.25
2018-02-17T05:41:59.874Z,1.29
2018-02-17T05:42:59.742Z,1.33
2018-02-17T05:43:59.611Z,1.39
2018-02-17T05:44:59.482Z,1.37
2018-02-17T05:45:59.350Z,1.37
2018-02-17T05:46:59.215Z,1.36
2018-02-17T05:47:59.086Z,1.34
2018-02-17T05:48:58.961Z,1.40
2018-02-17T05:49:58.825Z,1.39
2018-02-17T05:50:58.693Z,1.37
2018-02-17T05:51:58.564Z,1.37
2018-02-17T05:52:58.429Z,1.40
2018-02-17T05:53:58.300Z,1.33
2018-02-17T05:54:58.167Z,1.33
2018-02-17T05:55:58.039Z,1.34
2018-02-17T05:56:57.905Z,1.36
2018-02-17T05:57:57.776Z,1.39
2018-02-17T05:58:57.644Z,1.33
2018-02-17T05:59:57.514Z,1.36
2018-02-17T06:00:57.379Z,1.33
2018-02-17T06:01:57.249Z,1.33
2018-02-17T06:02:57.119Z,1.37
2018-02-17T06:03:56.992Z,1.37
2018-02-17T06:04:56.858Z,1.40
2018-02-17T06:05:56.727Z,1.40
2018-02-17T06:06:56.598Z,1.42
2018-02-17T06:07:56.466Z,1.34
2018-02-17T06:08:56.335Z,1.51
2018-02-17T06:09:56.202Z,1.47
2018-02-17T06:10:56.145Z,1.34
2018-02-17T06:11:55.944Z,1.43
2018-02-17T06:12:55.809Z,1.39
2018-02-17T06:13:55.681Z,1.43
2018-02-17T06:14:55.548Z,1.39
2018-02-17T06:15:55.417Z,1.40
2018-02-17T06:16:55.287Z,1.43
2018-02-17T06:17:55.158Z,1.51
2018-02-17T06:18:55.028Z,1.44
2018-02-17T06:19:54.899Z,1.43
2018-02-17T06:20:54.765Z,1.39
2018-02-17T06:21:54.632Z,1.37
2018-02-17T06:22:54.502Z,1.36
2018-02-17T06:23:54.370Z,1.36
2018-02-17T06:24:54.239Z,1.36
2018-02-17T06:25:54.110Z,1.32
2018-02-17T06:26:53.980Z,1.29
2018-02-17T06:27:53.847Z,1.32
2018-02-17T06:28:53.715Z,1.22
2018-02-17T06:29:53.588Z,1.22
2018-02-17T06:30:53.455Z,1.24
2018-02-17T06:31:53.382Z,1.22
2018-02-17T06:32:53.194Z,1.25
2018-02-17T06:33:53.062Z,1.19
2018-02-17T06:34:52.932Z,1.22
2018-02-17T06:35:52.802Z,1.25
2018-02-17T06:36:52.673Z,1.22
2018-02-17T06:37:52.538Z,1.21
2018-02-17T06:38:52.407Z,1.29
2018-02-17T06:39:52.276Z,1.36
2018-02-17T06:40:52.146Z,1.46
2018-02-17T06:41:52.017Z,1.51
2018-02-17T06:42:51.883Z,1.44
2018-02-17T06:43:51.754Z,1.44
2018-02-17T06:44:51.624Z,1.46
2018-02-17T06:45:51.492Z,1.51
2018-02-17T06:46:51.363Z,1.51
2018-02-17T06:47:51.231Z,1.61
2018-02-17T06:48:51.099Z,1.58
2018-02-17T06:49:50.969Z,1.58
2018-02-17T06:50:50.836Z,1.64
2018-02-17T06:51:50.708Z,1.65
2018-02-17T06:52:50.579Z,1.61
2018-02-17T06:53:50.445Z,1.61
2018-02-17T06:54:50.312Z,1.61
2018-02-17T06:55:50.183Z,1.68
2018-02-17T06:56:50.050Z,1.71
2018-02-17T06:57:49.920Z,1.69
2018-02-17T06:58:49.790Z,1.68
2018-02-17T06:59:49.656Z,1.76
2018-02-17T07:00:49.529Z,1.78
2018-02-17T07:01:49.397Z,1.76
2018-02-17T07:02:49.271Z,1.85
2018-02-17T07:03:49.137Z,1.76
2018-02-17T07:04:49.003Z,1.79
2018-02-17T07:05:48.876Z,1.85
2018-02-17T07:06:48.744Z,1.93
2018-02-17T07:07:48.615Z,1.97
2018-02-17T07:08:48.486Z,1.99
2018-02-17T07:09:48.351Z,1.89
2018-02-17T07:10:48.220Z,1.97
2018-02-17T07:11:48.092Z,1.91
2018-02-17T07:12:47.960Z,1.91
2018-02-17T07:13:47.832Z,1.91
2018-02-17T07:14:47.700Z,1.85
2018-02-17T07:15:47.570Z,1.90
2018-02-17T07:16:47.449Z,1.83
2018-02-17T07:17:47.307Z,1.80
2018-02-17T07:18:47.183Z,1.85
2018-02-17T07:19:47.051Z,1.83
2018-02-17T07:20:46.921Z,1.87
2018-02-17T07:21:46.791Z,1.78
2018-02-17T07:22:46.662Z,1.83
2018-02-17T07:23:46.529Z,1.83
2018-02-17T07:24:46.399Z,1.76
2018-02-17T07:25:46.272Z,1.82
2018-02-17T07:26:46.139Z,1.87
2018-02-17T07:27:46.012Z,1.97
2018-02-17T07:28:45.881Z,1.94
2018-02-17T07:29:45.748Z,2.01
2018-02-17T07:30:45.622Z,2.06
2018-02-17T07:31:45.490Z,2.17
2018-02-17T07:32:45.361Z,2.20
2018-02-17T07:33:45.232Z,2.17
2018-02-17T07:34:45.101Z,2.31
2018-02-17T07:35:44.973Z,2.31
2018-02-17T07:36:44.840Z,2.28
2018-02-17T07:37:44.713Z,2.46
2018-02-17T07:38:44.583Z,2.46
2018-02-17T07:39:44.455Z,2.46
2018-02-17T07:40:44.323Z,2.51
2018-02-17T07:41:44.191Z,2.46
2018-02-17T07:42:44.066Z,2.56
2018-02-17T07:43:43.934Z,2.56
2018-02-17T07:44:43.804Z,2.67
2018-02-17T07:45:43.682Z,2.70
2018-02-17T07:46:43.545Z,2.73
2018-02-17T07:47:43.417Z,2.79
2018-02-17T07:48:43.286Z,2.69
2018-02-17T07:49:43.159Z,2.82
2018-02-17T07:50:43.030Z,2.82
2018-02-17T07:51:42.899Z,2.88
2018-02-17T07:52:42.769Z,2.94
2018-02-17T07:53:42.642Z,2.98
2018-02-17T07:54:42.514Z,2.98
2018-02-17T07:55:42.383Z,3.00
2018-02-17T07:56:42.256Z,3.02
2018-02-17T07:57:42.127Z,2.98
2018-02-17T07:58:41.997Z,2.95
2018-02-17T07:59:41.867Z,2.98
2018-02-17T08:00:41.737Z,2.98
2018-02-17T08:01:41.616Z,2.98
2018-02-17T08:02:41.485Z,3.03
2018-02-17T08:03:41.354Z,3.02
2018-02-17T08:04:41.224Z,3.07
2018-02-17T08:05:41.096Z,3.13
2018-02-17T08:06:40.971Z,3.20
2018-02-17T08:07:40.843Z,3.21
2018-02-17T08:08:40.709Z,3.02
2018-02-17T08:09:40.642Z,3.07
2018-02-17T08:10:40.452Z,3.28
2018-02-17T08:11:40.327Z,3.40
2018-02-17T08:12:40.195Z,3.43
2018-02-17T08:13:40.062Z,3.42
2018-02-17T08:14:39.937Z,3.75
2018-02-17T08:15:39.806Z,3.72
2018-02-17T08:16:39.679Z,3.75
2018-02-17T08:17:39.550Z,3.83
2018-02-17T08:18:39.422Z,3.86
2018-02-17T08:19:39.294Z,3.83
2018-02-17T08:20:39.165Z,3.85
2018-02-17T08:21:39.038Z,3.94
2018-02-17T08:22:38.910Z,4.00
2018-02-17T08:23:38.781Z,4.15
2018-02-17T08:24:38.652Z,4.32
2018-02-17T08:25:38.525Z,4.47
2018-02-17T08:26:38.405Z,4.52
2018-02-17T08:27:38.271Z,4.59
2018-02-17T08:28:38.144Z,4.72
2018-02-17T08:29:38.016Z,4.80
2018-02-17T08:30:37.892Z,4.86
2018-02-17T08:31:37.763Z,4.94
2018-02-17T08:32:37.631Z,5.13
2018-02-17T08:33:37.505Z,5.31
2018-02-17T08:34:37.378Z,5.43
2018-02-17T08:35:37.252Z,5.48
2018-02-17T08:36:37.124Z,5.75
2018-02-17T08:37:36.999Z,5.91
2018-02-17T08:38:36.870Z,6.16
2018-02-17T08:39:36.742Z,6.33
2018-02-17T08:40:36.616Z,6.47
2018-02-17T08:41:36.490Z,6.46
2018-02-17T08:42:36.367Z,6.33
2018-02-17T08:43:36.236Z,6.19
2018-02-17T08:44:36.110Z,6.14
2018-02-17T08:45:35.983Z,6.38
2018-02-17T08:46:35.859Z,6.59
2018-02-17T08:47:35.734Z,6.56
2018-02-17T08:48:35.603Z,6.63
2018-02-17T08:49:35.480Z,6.77
2018-02-17T08:50:35.352Z,6.91
2018-02-17T08:51:35.229Z,6.89
2018-02-17T08:52:35.105Z,6.91
2018-02-17T08:53:34.978Z,6.86
2018-02-17T08:54:34.854Z,6.80
2018-02-17T08:55:34.726Z,6.71
2018-02-17T08:56:34.600Z,6.79
2018-02-17T08:57:34.476Z,6.80
2018-02-17T08:58:34.349Z,6.72
2018-02-17T08:59:34.222Z,6.59
2018-02-17T09:00:34.100Z,6.59
2018-02-17T09:01:33.974Z,6.72
2018-02-17T09:02:33.853Z,6.97
2018-02-17T09:03:33.727Z,7.12
2018-02-17T09:04:33.595Z,7.34
2018-02-17T09:05:33.473Z,7.66
2018-02-17T09:06:33.349Z,7.94
2018-02-17T09:07:33.221Z,7.89
2018-02-17T09:08:33.095Z,7.77
2018-02-17T09:09:32.973Z,7.55
2018-02-17T09:10:32.849Z,7.12
2018-02-17T09:11:32.721Z,6.97
2018-02-17T09:12:32.607Z,6.94
2018-02-17T09:13:32.472Z,6.71
2018-02-17T09:14:32.348Z,6.51
2018-02-17T09:15:32.227Z,6.36
2018-02-17T09:16:32.098Z,6.47
2018-02-17T09:17:31.974Z,6.59
2018-02-17T09:18:31.863Z,6.66
2018-02-17T09:19:31.726Z,6.71
2018-02-17T09:20:31.599Z,6.84
2018-02-17T09:21:31.474Z,6.47
2018-02-17T09:22:31.361Z,6.38
2018-02-17T09:23:31.225Z,6.59
2018-02-17T09:24:31.102Z,6.73
2018-02-17T09:25:30.975Z,7.09
2018-02-17T09:26:30.850Z,7.32
2018-02-17T09:27:30.777Z,7.49
2018-02-17T09:28:30.598Z,7.52
2018-02-17T09:29:30.478Z,7.20
2018-02-17T09:30:30.353Z,7.05
2018-02-17T09:31:30.225Z,6.33
2018-02-17T09:32:30.098Z,5.70
2018-02-17T09:33:29.973Z,5.49
2018-02-17T09:34:29.851Z,5.52
2018-02-17T09:35:29.726Z,5.71
2018-02-17T09:36:29.601Z,5.82
2018-02-17T09:37:29.473Z,5.96
2018-02-17T09:38:29.351Z,6.40
2018-02-17T09:39:29.224Z,6.77
2018-02-17T09:40:29.099Z,7.13
2018-02-17T09:41:28.974Z,7.42
2018-02-17T09:42:28.850Z,7.75
2018-02-17T09:43:28.726Z,7.84
2018-02-17T09:44:28.598Z,8.12
2018-02-17T09:45:28.476Z,8.29
2018-02-17T09:46:28.351Z,8.47
2018-02-17T09:47:28.233Z,8.62
2018-02-17T09:48:28.100Z,8.88
2018-02-17T09:49:27.975Z,8.86
2018-02-17T09:50:27.850Z,8.88
2018-02-17T09:51:27.728Z,8.91
2018-02-17T09:52:27.599Z,8.79
2018-02-17T09:53:27.480Z,8.91
2018-02-17T09:54:27.353Z,9.09
2018-02-17T09:55:27.232Z,9.13
2018-02-17T09:56:27.105Z,9.38
2018-02-17T09:57:26.979Z,9.53
2018-02-17T09:58:26.859Z,9.66
2018-02-17T09:59:26.734Z,9.66
2018-02-17T10:00:26.609Z,9.75
2018-02-17T10:01:26.486Z,10.09
2018-02-17T10:02:26.376Z,10.43
2018-02-17T10:03:26.238Z,10.47
2018-02-17T10:04:26.116Z,10.43
2018-02-17T10:05:25.992Z,10.39
2018-02-17T10:06:25.868Z,10.52
2018-02-17T10:07:25.746Z,10.63
2018-02-17T10:08:25.626Z,10.52
2018-02-17T10:09:25.498Z,10.62
2018-02-17T10:10:25.377Z,10.62
2018-02-17T10:11:25.292Z,10.73
2018-02-17T10:12:25.134Z,10.77
2018-02-17T10:13:25.010Z,10.98
2018-02-17T10:14:24.885Z,10.76
2018-02-17T10:15:24.765Z,10.63
2018-02-17T10:16:24.639Z,10.24
2018-02-17T10:17:24.535Z,10.06
2018-02-17T10:18:24.398Z,9.68
2018-02-17T10:19:24.277Z,8.62
2018-02-17T10:20:24.151Z,8.14
2018-02-17T10:21:24.032Z,8.00
2018-02-17T10:22:23.908Z,8.00
2018-02-17T10:23:23.783Z,7.96
2018-02-17T10:24:23.715Z,7.81
2018-02-17T10:25:23.539Z,7.45
2018-02-17T10:26:23.414Z,7.35
2018-02-17T10:27:23.294Z,6.97
2018-02-17T10:28:23.169Z,6.66
2018-02-17T10:29:23.045Z,6.46
2018-02-17T10:30:22.919Z,6.48
2018-02-17T10:31:22.799Z,6.35
2018-02-17T10:32:22.676Z,6.25
2018-02-17T10:33:22.551Z,6.32
2018-02-17T10:34:22.428Z,6.54
2018-02-17T10:35:22.302Z,6.69
2018-02-17T10:36:22.190Z,6.76
2018-02-17T10:37:22.055Z,6.91
2018-02-17T10:38:21.928Z,7.02
2018-02-17T10:39:21.803Z,7.32
2018-02-17T10:40:21.681Z,7.22
2018-02-17T10:41:21.557Z,7.37
2018-02-17T10:42:21.433Z,7.52
2018-02-17T10:43:21.328Z,7.58
2018-02-17T10:44:21.183Z,7.74
2018-02-17T10:45:21.057Z,7.82
2018-02-17T10:46:20.934Z,7.89
2018-02-17T10:47:20.810Z,7.89
2018-02-17T10:48:20.686Z,8.07
2018-02-17T10:49:21.221Z,8.18
2018-02-17T10:50:20.438Z,8.28
2018-02-17T10:51:20.311Z,8.21
2018-02-17T10:52:20.189Z,8.15
2018-02-17T10:53:20.069Z,8.29
2018-02-17T10:54:19.948Z,8.44
2018-02-17T10:55:19.817Z,8.44
2018-02-17T10:56:19.690Z,8.47
2018-02-17T10:57:19.573Z,8.42
2018-02-17T10:58:19.444Z,8.58
2018-02-17T10:59:19.352Z,8.40
2018-02-17T11:00:19.196Z,8.35
2018-02-17T11:01:19.077Z,8.32
2018-02-17T11:02:18.950Z,8.17
2018-02-17T11:03:18.826Z,8.48
2018-02-17T11:04:18.699Z,8.48
2018-02-17T11:05:18.579Z,8.42
2018-02-17T11:06:18.471Z,8.51
2018-02-17T11:07:18.332Z,8.53
2018-02-17T11:08:18.207Z,8.66
2018-02-17T11:09:18.085Z,8.48
2018-02-17T11:10:17.962Z,8.47
2018-02-17T11:11:17.838Z,8.39
2018-02-17T11:12:17.722Z,8.36
2018-02-17T11:13:17.590Z,8.29
2018-02-17T11:14:17.526Z,8.15
2018-02-17T11:15:17.346Z,8.15
2018-02-17T11:16:17.220Z,8.00
2018-02-17T11:17:17.097Z,8.04
2018-02-17T11:18:16.974Z,8.18
2018-02-17T11:19:16.850Z,8.25
2018-02-17T11:20:16.726Z,8.30
2018-02-17T11:21:16.602Z,8.32
2018-02-17T11:22:16.478Z,8.26
2018-02-17T11:23:16.357Z,8.35
2018-02-17T11:24:16.233Z,8.29
2018-02-17T11:25:16.109Z,8.32
2018-02-17T11:26:16.015Z,8.15
2018-02-17T11:27:15.864Z,8.20
2018-02-17T11:28:15.736Z,8.20
2018-02-17T11:29:15.617Z,8.14
2018-02-17T11:30:15.491Z,7.99
2018-02-17T11:31:15.368Z,8.15
2018-02-17T11:32:15.244Z,8.00
2018-02-17T11:33:15.122Z,7.97
2018-02-17T11:34:14.994Z,7.93
2018-02-17T11:35:14.872Z,8.02
2018-02-17T11:36:14.749Z,7.84
2018-02-17T11:37:14.622Z,7.81
2018-02-17T11:38:14.499Z,7.81
2018-02-17T11:39:14.377Z,7.84
2018-02-17T11:40:14.294Z,7.99
2018-02-17T11:41:14.130Z,8.00
2018-02-17T11:42:14.005Z,8.11
2018-02-17T11:43:13.878Z,7.94
2018-02-17T11:44:13.758Z,7.85
2018-02-17T11:45:13.630Z,7.94
2018-02-17T11:46:13.513Z,8.04
2018-02-17T11:47:13.382Z,8.15
2018-02-17T11:48:13.260Z,8.25
2018-02-17T11:49:13.137Z,8.25
2018-02-17T11:50:13.016Z,7.96
2018-02-17T11:51:12.888Z,7.92
2018-02-17T11:52:12.761Z,8.00
2018-02-17T11:53:12.637Z,7.60
2018-02-17T11:54:12.513Z,7.34
2018-02-17T11:55:12.393Z,7.35
2018-02-17T11:56:12.267Z,7.44
2018-02-17T11:57:12.142Z,7.56
2018-02-17T11:58:12.020Z,7.71
2018-02-17T11:59:11.895Z,7.49
2018-02-17T12:00:11.771Z,7.29
2018-02-17T12:01:11.645Z,7.24
2018-02-17T12:02:11.529Z,7.35
2018-02-17T12:03:11.397Z,7.23
2018-02-17T12:04:11.322Z,7.22
2018-02-17T12:05:11.148Z,7.35
2018-02-17T12:06:11.025Z,7.26
2018-02-17T12:07:10.899Z,7.16
2018-02-17T12:08:10.776Z,6.76
2018-02-17T12:09:10.651Z,6.65
2018-02-17T12:10:10.527Z,6.90
2018-02-17T12:11:10.410Z,6.98
2018-02-17T12:12:10.279Z,7.09
2018-02-17T12:13:10.153Z,6.95
2018-02-17T12:14:10.030Z,6.84
2018-02-17T12:15:09.909Z,6.95
2018-02-17T12:16:09.781Z,6.97
2018-02-17T12:17:09.657Z,7.05
2018-02-17T12:18:09.529Z,7.07
2018-02-17T12:19:09.407Z,7.08
2018-02-17T12:20:09.282Z,6.99
2018-02-17T12:21:09.157Z,7.02
2018-02-17T12:22:09.032Z,6.94
2018-02-17T12:23:08.907Z,6.72
2018-02-17T12:24:08.782Z,6.72
2018-02-17T12:25:08.659Z,6.97
2018-02-17T12:26:08.539Z,7.04
2018-02-17T12:27:08.407Z,6.91
2018-02-17T12:28:08.282Z,6.94
2018-02-17T12:29:08.158Z,6.98
2018-02-17T12:30:08.032Z,6.95
2018-02-17T12:31:07.911Z,6.91
2018-02-17T12:32:07.788Z,6.79
2018-02-17T12:33:07.661Z,6.80
2018-02-17T12:34:07.534Z,6.66
2018-02-17T12:35:07.410Z,6.48
2018-02-17T12:36:07.283Z,6.46
2018-02-17T12:37:07.159Z,6.51
2018-02-17T12:38:07.037Z,6.61
2018-02-17T12:39:06.913Z,6.76
2018-02-17T12:40:06.786Z,6.77
2018-02-17T12:41:06.662Z,6.77
2018-02-17T12:42:06.535Z,6.86
2018-02-17T12:43:06.410Z,6.91
2018-02-17T12:44:06.296Z,6.95
2018-02-17T12:45:06.193Z,7.05
2018-02-17T12:46:06.037Z,7.22
2018-02-17T12:47:05.912Z,7.13
2018-02-17T12:48:05.785Z,7.19
2018-02-17T12:49:05.658Z,7.17
2018-02-17T12:50:05.536Z,7.22
2018-02-17T12:51:05.412Z,7.24
2018-02-17T12:52:05.285Z,6.94
2018-02-17T12:53:05.184Z,6.99
2018-02-17T12:54:05.044Z,6.86
2018-02-17T12:55:04.962Z,6.56
2018-02-17T12:56:04.802Z,6.58
2018-02-17T12:57:04.679Z,6.59
2018-02-17T12:58:04.538Z,6.71
2018-02-17T12:59:04.412Z,6.72
2018-02-17T13:00:04.289Z,6.73
2018-02-17T13:01:04.167Z,6.66
2018-02-17T13:02:04.053Z,6.50
2018-02-17T13:03:03.912Z,6.33
2018-02-17T13:04:03.786Z,6.32
2018-02-17T13:05:03.668Z,6.13
2018-02-17T13:06:03.539Z,6.11
2018-02-17T13:07:03.421Z,6.07
2018-02-17T13:08:03.303Z,6.16
2018-02-17T13:09:03.171Z,6.26
2018-02-17T13:10:03.039Z,6.29
2018-02-17T13:11:02.914Z,6.28
2018-02-17T13:12:02.785Z,6.01
2018-02-17T13:13:02.663Z,6.00
2018-02-17T13:14:02.535Z,5.96
2018-02-17T13:15:02.411Z,5.89
2018-02-17T13:16:02.287Z,5.75